createdAt,value
2022-10-06T00:00:27.275Z,0.00
2022-10-06T00:01:27.197Z,0.00
2022-10-06T00:02:28.174Z,0.00
2022-10-06T00:03:27.100Z,0.00
2022-10-06T00:04:27.101Z,0.00
2022-10-06T00:05:27.085Z,0.00
2022-10-06T00:06:27.081Z,0.00
2022-10-06T00:07:27.056Z,0.00
2022-10-06T00:08:27.416Z,0.00
2022-10-06T00:09:26.992Z,0.00
2022-10-06T00:10:26.968Z,0.00
2022-10-06T00:11:27.000Z,0.00
2022-10-06T00:12:27.142Z,0.00
2022-10-06T00:13:26.946Z,0.00
2022-10-06T00:14:26.904Z,0.00
2022-10-06T00:15:27.051Z,0.00
2022-10-06T00:16:26.881Z,0.00
2022-10-06T00:17:26.856Z,0.00
2022-10-06T00:18:27.405Z,0.00
2022-10-06T00:19:26.816Z,0.00
2022-10-06T00:20:26.822Z,0.00
2022-10-06T00:21:26.845Z,0.00
2022-10-06T00:22:26.788Z,0.00
2022-10-06T00:23:26.758Z,0.00
2022-10-06T00:24:26.748Z,0.00
2022-10-06T00:25:26.763Z,0.00
2022-10-06T00:26:26.713Z,0.00
2022-10-06T00:27:26.698Z,0.00
2022-10-06T00:28:27.366Z,0.00
2022-10-06T00:29:26.664Z,0.00
2022-10-06T00:30:26.666Z,0.00
2022-10-06T00:31:26.708Z,0.00
2022-10-06T00:32:26.696Z,0.00
2022-10-06T00:33:26.620Z,0.00
2022-10-06T00:34:26.600Z,0.00
2022-10-06T00:35:26.605Z,0.00
2022-10-06T00:36:26.634Z,0.00
2022-10-06T00:37:26.585Z,0.00
2022-10-06T00:38:27.042Z,0.00
2022-10-06T00:39:26.505Z,0.00
2022-10-06T00:40:26.480Z,0.00
2022-10-06T00:41:26.503Z,0.00
2022-10-06T00:42:27.459Z,0.00
2022-10-06T00:43:26.469Z,0.00
2022-10-06T00:44:27.351Z,0.00
2022-10-06T00:45:26.437Z,0.00
2022-10-06T00:46:26.445Z,0.00
2022-10-06T00:47:26.372Z,0.00
2022-10-06T00:48:26.872Z,0.00
2022-10-06T00:49:26.336Z,0.00
2022-10-06T00:50:26.339Z,0.00
2022-10-06T00:51:26.336Z,0.00
2022-10-06T00:52:26.315Z,0.00
2022-10-06T00:53:26.292Z,0.00
2022-10-06T00:54:26.252Z,0.00
2022-10-06T00:55:26.252Z,0.00
2022-10-06T00:56:26.271Z,0.00
2022-10-06T00:57:26.215Z,0.00
2022-10-06T00:58:26.621Z,0.00
2022-10-06T00:59:26.161Z,0.00
2022-10-06T01:00:26.156Z,0.00
2022-10-06T01:01:26.229Z,0.00
2022-10-06T01:02:26.176Z,0.00
2022-10-06T01:03:26.104Z,0.00
2022-10-06T01:04:26.087Z,0.00
2022-10-06T01:05:26.331Z,0.00
2022-10-06T01:06:26.088Z,0.00
2022-10-06T01:07:26.036Z,0.00
2022-10-06T01:08:26.344Z,0.00
2022-10-06T01:09:25.994Z,0.00
2022-10-06T01:10:26.022Z,0.00
2022-10-06T01:11:25.986Z,0.00
2022-10-06T01:12:25.955Z,0.00
2022-10-06T01:13:25.930Z,0.00
2022-10-06T01:14:25.935Z,0.00
2022-10-06T01:15:25.895Z,0.00
2022-10-06T01:16:25.936Z,0.00
2022-10-06T01:17:25.866Z,0.00
2022-10-06T01:18:26.213Z,0.00
2022-10-06T01:19:25.901Z,0.00
2022-10-06T01:20:25.815Z,0.00
2022-10-06T01:21:25.848Z,0.00
2022-10-06T01:22:25.781Z,0.00
2022-10-06T01:23:25.768Z,0.00
2022-10-06T01:24:25.761Z,0.00
2022-10-06T01:25:25.750Z,0.00
2022-10-06T01:26:25.793Z,0.00
2022-10-06T01:27:25.722Z,0.00
2022-10-06T01:28:26.226Z,0.00
2022-10-06T01:29:25.696Z,0.00
2022-10-06T01:30:25.663Z,0.00
2022-10-06T01:31:25.747Z,0.00
2022-10-06T01:32:25.635Z,0.00
2022-10-06T01:33:25.611Z,0.00
2022-10-06T01:34:25.592Z,0.00
2022-10-06T01:35:25.585Z,0.00
2022-10-06T01:36:25.638Z,0.00
2022-10-06T01:37:25.556Z,0.00
2022-10-06T01:38:25.855Z,0.00
2022-10-06T01:39:25.514Z,0.00
2022-10-06T01:40:25.499Z,0.00
2022-10-06T01:41:25.512Z,0.00
2022-10-06T01:42:25.466Z,0.00
2022-10-06T01:43:25.452Z,0.00
2022-10-06T01:44:25.430Z,0.00
2022-10-06T01:45:25.426Z,0.00
2022-10-06T01:46:25.472Z,0.00
2022-10-06T01:47:25.415Z,0.00
2022-10-06T01:48:25.782Z,0.00
2022-10-06T01:49:25.354Z,0.00
2022-10-06T01:50:25.341Z,0.00
2022-10-06T01:51:25.372Z,0.00
2022-10-06T01:52:25.286Z,0.00
2022-10-06T01:53:25.292Z,0.00
2022-10-06T01:54:25.252Z,0.00
2022-10-06T01:55:25.274Z,0.00
2022-10-06T01:56:25.274Z,0.00
2022-10-06T01:57:25.223Z,0.00
2022-10-06T01:58:25.436Z,0.00
2022-10-06T01:59:25.182Z,0.00
2022-10-06T02:00:25.200Z,0.00
2022-10-06T02:01:25.230Z,0.00
2022-10-06T02:02:25.131Z,0.00
2022-10-06T02:03:25.132Z,0.00
2022-10-06T02:04:25.328Z,0.00
2022-10-06T02:05:26.093Z,0.00
2022-10-06T02:06:25.150Z,0.00
2022-10-06T02:07:25.134Z,0.00
2022-10-06T02:08:25.241Z,0.00
2022-10-06T02:09:25.046Z,0.00
2022-10-06T02:10:25.020Z,0.00
2022-10-06T02:11:25.005Z,0.00
2022-10-06T02:12:24.964Z,0.00
2022-10-06T02:13:24.995Z,0.00
2022-10-06T02:14:24.929Z,0.00
2022-10-06T02:15:24.923Z,0.00
2022-10-06T02:16:24.983Z,0.00
2022-10-06T02:17:24.891Z,0.00
2022-10-06T02:18:25.135Z,0.00
2022-10-06T02:19:24.886Z,0.00
2022-10-06T02:20:24.848Z,0.00
2022-10-06T02:21:24.841Z,0.00
2022-10-06T02:22:24.810Z,0.00
2022-10-06T02:23:24.783Z,0.00
2022-10-06T02:24:24.768Z,0.00
2022-10-06T02:25:24.745Z,0.00
2022-10-06T02:26:24.803Z,0.00
2022-10-06T02:27:24.735Z,0.00
2022-10-06T02:28:24.794Z,0.00
2022-10-06T02:29:24.670Z,0.00
2022-10-06T02:30:24.713Z,0.00
2022-10-06T02:31:24.772Z,0.00
2022-10-06T02:32:24.642Z,0.00
2022-10-06T02:33:24.625Z,0.00
2022-10-06T02:34:24.600Z,0.00
2022-10-06T02:35:24.586Z,0.00
2022-10-06T02:36:24.591Z,0.00
2022-10-06T02:37:24.544Z,0.00
2022-10-06T02:38:24.569Z,0.00
2022-10-06T02:39:24.511Z,0.00
2022-10-06T02:40:24.514Z,0.00
2022-10-06T02:41:24.499Z,0.00
2022-10-06T02:42:24.475Z,0.00
2022-10-06T02:43:24.457Z,0.00
2022-10-06T02:44:24.472Z,0.00
2022-10-06T02:45:24.409Z,0.00
2022-10-06T02:46:24.517Z,0.00
2022-10-06T02:47:24.393Z,0.00
2022-10-06T02:48:24.340Z,0.00
2022-10-06T02:49:24.366Z,0.00
2022-10-06T02:50:24.330Z,0.00
2022-10-06T02:51:24.343Z,0.00
2022-10-06T02:52:24.312Z,0.00
2022-10-06T02:53:24.267Z,0.00
2022-10-06T02:54:24.282Z,0.00
2022-10-06T02:55:24.242Z,0.00
2022-10-06T02:56:24.245Z,0.00
2022-10-06T02:57:24.233Z,0.00
2022-10-06T02:58:24.194Z,0.00
2022-10-06T02:59:24.185Z,0.00
2022-10-06T03:00:24.149Z,0.00
2022-10-06T03:01:24.226Z,0.00
2022-10-06T03:02:24.277Z,0.00
2022-10-06T03:03:24.118Z,0.00
2022-10-06T03:04:24.085Z,0.00
2022-10-06T03:05:24.078Z,0.00
2022-10-06T03:06:24.091Z,0.00
2022-10-06T03:07:24.133Z,0.00
2022-10-06T03:08:24.043Z,0.00
2022-10-06T03:09:24.015Z,0.00
2022-10-06T03:10:23.999Z,0.00
2022-10-06T03:11:24.003Z,0.00
2022-10-06T03:12:23.972Z,0.00
2022-10-06T03:13:23.965Z,0.00
2022-10-06T03:14:23.940Z,0.00
2022-10-06T03:15:23.920Z,0.00
2022-10-06T03:16:24.054Z,0.00
2022-10-06T03:17:23.887Z,0.00
2022-10-06T03:18:23.856Z,0.00
2022-10-06T03:19:24.849Z,0.00
2022-10-06T03:20:23.828Z,0.00
2022-10-06T03:21:23.986Z,0.00
2022-10-06T03:22:23.791Z,0.00
2022-10-06T03:23:23.791Z,0.00
2022-10-06T03:24:23.770Z,0.00
2022-10-06T03:25:23.733Z,0.00
2022-10-06T03:26:23.765Z,0.00
2022-10-06T03:27:23.688Z,0.00
2022-10-06T03:28:23.757Z,0.00
2022-10-06T03:29:24.669Z,0.00
2022-10-06T03:30:23.652Z,0.00
2022-10-06T03:31:23.730Z,0.00
2022-10-06T03:32:23.628Z,0.00
2022-10-06T03:33:23.623Z,0.00
2022-10-06T03:34:23.566Z,0.00
2022-10-06T03:35:23.570Z,0.00
2022-10-06T03:36:23.617Z,0.00
2022-10-06T03:37:23.532Z,0.00
2022-10-06T03:38:23.550Z,0.00
2022-10-06T03:39:23.545Z,0.00
2022-10-06T03:40:23.481Z,0.00
2022-10-06T03:41:23.607Z,0.00
2022-10-06T03:42:23.447Z,0.00
2022-10-06T03:43:23.445Z,0.00
2022-10-06T03:44:23.431Z,0.00
2022-10-06T03:45:23.387Z,0.00
2022-10-06T03:46:23.480Z,0.00
2022-10-06T03:47:23.369Z,0.00
2022-10-06T03:48:23.368Z,0.00
2022-10-06T03:49:23.329Z,0.00
2022-10-06T03:50:23.371Z,0.00
2022-10-06T03:51:23.348Z,0.00
2022-10-06T03:52:26.016Z,0.00
2022-10-06T03:53:24.278Z,0.00
2022-10-06T03:54:23.255Z,0.00
2022-10-06T03:55:23.269Z,0.00
2022-10-06T03:56:23.283Z,0.00
2022-10-06T03:57:23.212Z,0.00
2022-10-06T03:58:23.492Z,0.00
2022-10-06T03:59:23.190Z,0.00
2022-10-06T04:00:23.178Z,0.00
2022-10-06T04:01:26.161Z,0.00
2022-10-06T04:02:24.170Z,0.00
2022-10-06T04:03:23.114Z,0.00
2022-10-06T04:04:23.100Z,0.00
2022-10-06T04:05:23.086Z,0.00
2022-10-06T04:06:23.202Z,0.00
2022-10-06T04:07:23.066Z,0.00
2022-10-06T04:08:23.176Z,0.00
2022-10-06T04:09:23.017Z,0.00
2022-10-06T04:10:22.985Z,0.00
2022-10-06T04:11:23.013Z,0.00
2022-10-06T04:12:22.956Z,0.00
2022-10-06T04:13:22.954Z,0.00
2022-10-06T04:14:22.946Z,0.00
2022-10-06T04:15:22.905Z,0.00
2022-10-06T04:16:23.330Z,0.00
2022-10-06T04:17:22.864Z,0.00
2022-10-06T04:18:22.868Z,0.00
2022-10-06T04:19:22.848Z,0.00
2022-10-06T04:20:22.837Z,0.00
2022-10-06T04:21:22.834Z,0.00
2022-10-06T04:22:22.813Z,0.00
2022-10-06T04:23:22.779Z,0.00
2022-10-06T04:24:22.745Z,0.00
2022-10-06T04:25:22.788Z,0.00
2022-10-06T04:26:22.763Z,0.00
2022-10-06T04:27:22.719Z,0.00
2022-10-06T04:28:22.720Z,0.00
2022-10-06T04:29:22.680Z,0.00
2022-10-06T04:30:22.673Z,0.00
2022-10-06T04:31:22.712Z,0.00
2022-10-06T04:32:22.629Z,0.00
2022-10-06T04:33:22.665Z,0.00
2022-10-06T04:34:22.602Z,0.00
2022-10-06T04:35:22.615Z,0.00
2022-10-06T04:36:22.584Z,0.00
2022-10-06T04:37:23.556Z,0.00
2022-10-06T04:38:22.577Z,0.00
2022-10-06T04:39:22.519Z,0.00
2022-10-06T04:40:22.540Z,0.00
2022-10-06T04:41:22.500Z,0.00
2022-10-06T04:42:22.518Z,0.00
2022-10-06T04:43:22.474Z,0.00
2022-10-06T04:44:22.426Z,0.00
2022-10-06T04:45:22.465Z,0.00
2022-10-06T04:46:46.009Z,0.00
2022-10-06T04:47:24.372Z,0.00
2022-10-06T04:48:22.381Z,0.00
2022-10-06T04:49:22.338Z,0.00
2022-10-06T04:50:22.336Z,0.00
2022-10-06T04:51:22.391Z,0.00
2022-10-06T04:52:22.354Z,0.00
2022-10-06T04:53:22.276Z,0.00
2022-10-06T04:54:22.988Z,0.00
2022-10-06T04:55:22.259Z,0.00
2022-10-06T04:56:22.253Z,0.00
2022-10-06T04:57:22.218Z,0.00
2022-10-06T04:58:22.203Z,0.00
2022-10-06T04:59:22.175Z,0.00
2022-10-06T05:00:22.160Z,0.00
2022-10-06T05:01:22.267Z,0.00
2022-10-06T05:02:22.189Z,0.00
2022-10-06T05:03:22.109Z,0.00
2022-10-06T05:04:22.092Z,0.00
2022-10-06T05:05:22.074Z,0.00
2022-10-06T05:06:22.078Z,0.00
2022-10-06T05:07:22.022Z,0.00
2022-10-06T05:08:22.017Z,0.00
2022-10-06T05:09:22.044Z,0.00
2022-10-06T05:10:22.013Z,0.00
2022-10-06T05:11:25.600Z,0.00
2022-10-06T05:12:22.967Z,0.00
2022-10-06T05:13:21.934Z,0.00
2022-10-06T05:14:21.922Z,5.62
2022-10-06T05:15:21.921Z,5.62
2022-10-06T05:16:21.961Z,5.62
2022-10-06T05:17:21.901Z,5.62
2022-10-06T05:18:21.851Z,5.62
2022-10-06T05:19:21.829Z,11.25
2022-10-06T05:20:21.851Z,11.25
2022-10-06T05:21:21.849Z,11.25
2022-10-06T05:22:21.810Z,11.25
2022-10-06T05:23:21.784Z,16.88
2022-10-06T05:24:21.775Z,16.88
2022-10-06T05:25:21.796Z,16.88
2022-10-06T05:26:21.787Z,22.50
2022-10-06T05:27:21.704Z,22.50
2022-10-06T05:28:21.710Z,28.12
2022-10-06T05:29:21.707Z,28.12
2022-10-06T05:30:21.640Z,33.75
2022-10-06T05:31:21.725Z,33.75
2022-10-06T05:32:21.613Z,33.75
2022-10-06T05:33:21.602Z,39.38
2022-10-06T05:34:21.595Z,45.00
2022-10-06T05:35:21.560Z,45.00
2022-10-06T05:36:21.552Z,50.62
2022-10-06T05:37:21.535Z,56.25
2022-10-06T05:38:21.520Z,61.88
2022-10-06T05:39:21.950Z,67.50
2022-10-06T05:40:21.492Z,73.12
2022-10-06T05:41:21.489Z,78.75
2022-10-06T05:42:24.102Z,84.38
2022-10-06T05:43:21.450Z,90.00
2022-10-06T05:44:21.436Z,101.25
2022-10-06T05:45:21.397Z,106.88
2022-10-06T05:46:21.438Z,118.12
2022-10-06T05:47:21.350Z,135.00
2022-10-06T05:48:21.328Z,146.25
2022-10-06T05:49:21.338Z,157.50
2022-10-06T05:50:21.289Z,168.75
2022-10-06T05:51:21.324Z,225.00
2022-10-06T05:52:21.275Z,405.00
2022-10-06T05:53:21.335Z,590.62
2022-10-06T05:54:21.252Z,607.50
2022-10-06T05:55:21.266Z,573.75
2022-10-06T05:56:21.238Z,601.88
2022-10-06T05:57:21.188Z,410.62
2022-10-06T05:58:21.156Z,315.00
2022-10-06T05:59:21.166Z,444.38
2022-10-06T06:00:21.154Z,770.62
2022-10-06T06:01:21.205Z,1068.75
2022-10-06T06:02:21.150Z,1271.25
2022-10-06T06:03:21.108Z,1333.12
2022-10-06T06:04:21.100Z,1389.38
2022-10-06T06:05:21.169Z,1558.12
2022-10-06T06:06:21.054Z,1614.38
2022-10-06T06:07:21.007Z,1653.75
2022-10-06T06:08:21.053Z,1732.50
2022-10-06T06:09:21.002Z,1845.00
2022-10-06T06:10:21.244Z,1873.12
2022-10-06T06:11:20.988Z,1861.88
2022-10-06T06:12:20.924Z,1777.50
2022-10-06T06:13:20.912Z,1856.25
2022-10-06T06:14:20.921Z,1980.00
2022-10-06T06:15:20.889Z,2008.12
2022-10-06T06:16:20.915Z,2081.25
2022-10-06T06:17:20.840Z,2255.62
2022-10-06T06:18:20.818Z,2340.00
2022-10-06T06:19:20.814Z,2171.25
2022-10-06T06:20:20.810Z,2120.62
2022-10-06T06:21:20.829Z,1625.62
2022-10-06T06:22:21.032Z,1873.12
2022-10-06T06:23:20.735Z,922.50
2022-10-06T06:24:20.713Z,1608.75
2022-10-06T06:25:20.787Z,956.25
2022-10-06T06:26:20.903Z,742.50
2022-10-06T06:27:20.728Z,725.62
2022-10-06T06:28:20.705Z,1113.75
2022-10-06T06:29:20.685Z,1158.75
2022-10-06T06:30:20.688Z,2863.12
2022-10-06T06:31:20.746Z,2902.50
2022-10-06T06:32:20.603Z,1445.62
2022-10-06T06:33:20.594Z,2621.25
2022-10-06T06:34:20.559Z,1991.25
2022-10-06T06:35:20.528Z,1766.25
2022-10-06T06:36:20.538Z,3093.75
2022-10-06T06:37:20.620Z,2340.00
2022-10-06T06:38:20.514Z,1760.62
2022-10-06T06:39:20.465Z,781.88
2022-10-06T06:40:20.468Z,3363.75
2022-10-06T06:41:20.462Z,1586.25
2022-10-06T06:42:20.422Z,978.75
2022-10-06T06:43:20.677Z,1057.50
2022-10-06T06:44:20.397Z,3200.62
2022-10-06T06:45:20.352Z,1361.25
2022-10-06T06:46:20.456Z,3465.00
2022-10-06T06:47:21.983Z,3307.50
2022-10-06T06:48:20.338Z,2964.38
2022-10-06T06:49:20.342Z,3234.38
2022-10-06T06:50:20.281Z,3622.50
2022-10-06T06:51:20.282Z,3650.62
2022-10-06T06:52:20.234Z,3183.75
2022-10-06T06:53:20.247Z,2520.00
2022-10-06T06:54:20.236Z,1333.12
2022-10-06T06:55:20.267Z,1563.75
2022-10-06T06:56:20.296Z,2902.50
2022-10-06T06:57:20.234Z,1496.25
2022-10-06T06:58:20.152Z,3909.38
2022-10-06T06:59:20.125Z,4027.50
2022-10-06T07:00:20.751Z,4016.25
2022-10-06T07:01:20.264Z,3031.88
2022-10-06T07:02:20.108Z,3161.25
2022-10-06T07:03:33.015Z,4230.00
2022-10-06T07:04:22.044Z,4477.50
2022-10-06T07:05:20.027Z,4033.12
2022-10-06T07:06:21.160Z,3875.62
2022-10-06T07:07:20.026Z,4353.75
2022-10-06T07:08:20.026Z,4140.00
2022-10-06T07:09:20.037Z,4612.50
2022-10-06T07:10:19.987Z,4736.25
2022-10-06T07:11:19.968Z,4173.75
2022-10-06T07:12:19.912Z,4230.00
2022-10-06T07:13:19.910Z,4443.75
2022-10-06T07:14:19.896Z,4477.50
2022-10-06T07:15:19.900Z,4657.50
2022-10-06T07:16:19.910Z,4955.62
2022-10-06T07:17:19.919Z,1794.38
2022-10-06T07:18:19.854Z,1676.25
2022-10-06T07:19:24.491Z,849.38
2022-10-06T07:20:21.794Z,826.88
2022-10-06T07:21:19.804Z,1063.12
2022-10-06T07:22:19.800Z,2390.62
2022-10-06T07:23:19.778Z,4072.50
2022-10-06T07:24:19.869Z,4899.38
2022-10-06T07:25:25.160Z,5062.50
2022-10-06T07:26:21.702Z,5113.12
2022-10-06T07:27:19.740Z,1153.12
2022-10-06T07:28:19.740Z,4657.50
2022-10-06T07:29:19.669Z,2587.50
2022-10-06T07:30:19.667Z,5006.25
2022-10-06T07:31:19.722Z,3476.25
2022-10-06T07:32:19.680Z,4809.38
2022-10-06T07:33:19.606Z,5096.25
2022-10-06T07:34:19.592Z,4831.88
2022-10-06T07:35:19.584Z,5040.00
2022-10-06T07:36:19.585Z,5383.12
2022-10-06T07:37:19.584Z,5000.62
2022-10-06T07:38:19.534Z,4708.12
2022-10-06T07:39:19.535Z,5141.25
2022-10-06T07:40:19.484Z,5653.12
2022-10-06T07:41:20.478Z,5596.88
2022-10-06T07:42:20.972Z,5490.00
2022-10-06T07:43:19.458Z,4775.62
2022-10-06T07:44:19.443Z,5208.75
2022-10-06T07:45:19.461Z,4910.62
2022-10-06T07:46:19.818Z,1215.00
2022-10-06T07:47:19.415Z,2013.75
2022-10-06T07:48:19.395Z,945.00
2022-10-06T07:49:19.354Z,770.62
2022-10-06T07:50:19.344Z,1496.25
2022-10-06T07:51:19.308Z,720.00
2022-10-06T07:52:19.344Z,776.25
2022-10-06T07:53:19.298Z,815.62
2022-10-06T07:54:21.059Z,2070.00
2022-10-06T07:55:19.241Z,933.75
2022-10-06T07:56:19.249Z,866.25
2022-10-06T07:57:19.293Z,1473.75
2022-10-06T07:58:19.190Z,821.25
2022-10-06T07:59:20.171Z,748.12
2022-10-06T08:00:19.252Z,871.88
2022-10-06T08:01:19.222Z,1035.00
2022-10-06T08:02:19.221Z,5518.12
2022-10-06T08:03:19.231Z,2604.38
2022-10-06T08:04:19.121Z,2491.88
2022-10-06T08:05:19.099Z,3234.38
2022-10-06T08:06:19.104Z,883.12
2022-10-06T08:07:19.149Z,1085.62
2022-10-06T08:08:19.210Z,4590.00
2022-10-06T08:09:19.027Z,1203.75
2022-10-06T08:10:19.021Z,1755.00
2022-10-06T08:11:18.991Z,5141.25
2022-10-06T08:12:19.044Z,1203.75
2022-10-06T08:13:18.966Z,956.25
2022-10-06T08:14:19.060Z,1063.12
2022-10-06T08:15:18.932Z,5411.25
2022-10-06T08:16:18.973Z,5670.00
2022-10-06T08:17:18.988Z,5180.62
2022-10-06T08:18:41.090Z,6080.62
2022-10-06T08:19:20.878Z,3358.12
2022-10-06T08:20:19.112Z,1305.00
2022-10-06T08:21:18.858Z,3003.75
2022-10-06T08:22:18.870Z,4736.25
2022-10-06T08:23:18.835Z,4730.62
2022-10-06T08:24:18.905Z,1141.88
2022-10-06T08:25:18.780Z,1260.00
2022-10-06T08:26:18.771Z,2120.62
2022-10-06T08:27:18.822Z,1361.25
2022-10-06T08:28:18.850Z,1327.50
2022-10-06T08:29:18.717Z,1468.12
2022-10-06T08:30:18.711Z,900.00
2022-10-06T08:31:18.754Z,956.25
2022-10-06T08:32:18.722Z,1186.88
2022-10-06T08:33:21.265Z,1383.75
2022-10-06T08:34:19.660Z,928.12
2022-10-06T08:35:18.638Z,1546.88
2022-10-06T08:36:18.601Z,933.75
2022-10-06T08:37:20.569Z,866.25
2022-10-06T08:38:19.585Z,860.62
2022-10-06T08:39:18.558Z,804.38
2022-10-06T08:40:18.608Z,821.25
2022-10-06T08:41:18.570Z,888.75
2022-10-06T08:42:18.545Z,916.88
2022-10-06T08:43:18.539Z,961.88
2022-10-06T08:44:18.509Z,939.38
2022-10-06T08:45:18.519Z,928.12
2022-10-06T08:46:21.011Z,995.62
2022-10-06T08:47:19.491Z,4680.00
2022-10-06T08:48:18.428Z,1074.38
2022-10-06T08:49:18.443Z,2058.75
2022-10-06T08:50:18.394Z,2041.88
2022-10-06T08:51:18.407Z,1237.50
2022-10-06T08:52:18.403Z,4381.88
2022-10-06T08:53:18.350Z,4123.12
2022-10-06T08:54:18.357Z,2925.00
2022-10-06T08:55:18.323Z,4736.25
2022-10-06T08:56:18.353Z,4668.75
2022-10-06T08:57:18.292Z,4432.50
2022-10-06T08:58:18.273Z,4590.00
2022-10-06T08:59:18.243Z,4376.25
2022-10-06T09:00:21.252Z,3161.25
2022-10-06T09:01:18.251Z,4140.00
2022-10-06T09:02:18.286Z,4106.25
2022-10-06T09:03:18.169Z,3819.38
2022-10-06T09:04:18.163Z,4336.88
2022-10-06T09:05:18.141Z,4218.75
2022-10-06T09:06:18.138Z,4843.12
2022-10-06T09:07:18.168Z,4888.12
2022-10-06T09:08:18.085Z,4612.50
2022-10-06T09:09:18.099Z,4843.12
2022-10-06T09:10:18.059Z,4494.38
2022-10-06T09:11:18.054Z,4663.12
2022-10-06T09:12:18.083Z,4443.75
2022-10-06T09:13:21.710Z,4584.38
2022-10-06T09:14:19.011Z,5079.38
2022-10-06T09:15:17.984Z,5461.88
2022-10-06T09:16:18.041Z,5287.50
2022-10-06T09:17:18.014Z,5259.38
2022-10-06T09:18:17.951Z,5287.50
2022-10-06T09:19:17.916Z,4865.62
2022-10-06T09:20:17.912Z,4747.50
2022-10-06T09:21:17.893Z,5062.50
2022-10-06T09:22:17.902Z,4488.75
2022-10-06T09:23:17.898Z,4522.50
2022-10-06T09:24:17.929Z,3740.62
2022-10-06T09:25:17.819Z,3858.75
2022-10-06T09:26:17.812Z,4291.88
2022-10-06T09:27:17.845Z,4635.00
2022-10-06T09:28:17.821Z,4404.38
2022-10-06T09:29:17.771Z,3791.25
2022-10-06T09:30:17.801Z,3898.12
2022-10-06T09:31:17.795Z,4342.50
2022-10-06T09:32:17.749Z,4516.88
2022-10-06T09:33:17.699Z,4438.12
2022-10-06T09:34:17.696Z,4269.38
2022-10-06T09:35:17.664Z,5068.12
2022-10-06T09:36:17.688Z,4983.75
2022-10-06T09:37:17.683Z,4876.88
2022-10-06T09:38:17.630Z,1395.00
2022-10-06T09:39:17.610Z,2030.62
2022-10-06T09:40:17.646Z,4477.50
2022-10-06T09:41:17.592Z,4876.88
2022-10-06T09:42:17.638Z,4325.62
2022-10-06T09:43:17.594Z,4533.75
2022-10-06T09:44:17.557Z,4303.12
2022-10-06T09:45:17.531Z,4533.75
2022-10-06T09:46:17.506Z,4235.62
2022-10-06T09:47:17.523Z,3633.75
2022-10-06T09:48:18.213Z,4151.25
2022-10-06T09:49:17.462Z,4736.25
2022-10-06T09:50:17.702Z,4201.88
2022-10-06T09:51:17.453Z,3920.62
2022-10-06T09:52:17.460Z,4404.38
2022-10-06T09:53:17.398Z,4466.25
2022-10-06T09:54:17.384Z,4989.38
2022-10-06T09:55:17.386Z,4398.75
2022-10-06T09:56:17.361Z,4848.75
2022-10-06T09:57:17.403Z,2761.88
2022-10-06T09:58:17.327Z,1220.62
2022-10-06T09:59:17.318Z,4792.50
2022-10-06T10:00:17.314Z,4691.25
2022-10-06T10:01:17.295Z,2311.88
2022-10-06T10:02:17.347Z,4775.62
2022-10-06T10:03:17.316Z,1046.25
2022-10-06T10:04:21.567Z,1220.62
2022-10-06T10:05:18.244Z,967.50
2022-10-06T10:06:17.266Z,1468.12
2022-10-06T10:07:17.217Z,4950.00
2022-10-06T10:08:17.177Z,4893.75
2022-10-06T10:09:20.621Z,1496.25
2022-10-06T10:10:18.002Z,4213.12
2022-10-06T10:11:17.154Z,4387.50
2022-10-06T10:12:17.194Z,4320.00
2022-10-06T10:13:17.114Z,1271.25
2022-10-06T10:14:17.095Z,4224.38
2022-10-06T10:15:17.080Z,1046.25
2022-10-06T10:16:17.220Z,871.88
2022-10-06T10:17:17.092Z,838.12
2022-10-06T10:18:17.060Z,826.88
2022-10-06T10:19:17.017Z,3549.38
2022-10-06T10:20:17.002Z,894.38
2022-10-06T10:21:17.002Z,916.88
2022-10-06T10:22:17.039Z,1440.00
2022-10-06T10:23:16.974Z,1006.88
2022-10-06T10:24:17.066Z,4803.75
2022-10-06T10:25:16.929Z,1620.00
2022-10-06T10:26:16.918Z,2131.88
2022-10-06T10:27:16.915Z,2081.25
2022-10-06T10:28:16.922Z,3127.50
2022-10-06T10:29:16.870Z,916.88
2022-10-06T10:30:17.044Z,1490.62
2022-10-06T10:31:16.878Z,3796.88
2022-10-06T10:32:16.845Z,4252.50
2022-10-06T10:33:16.864Z,3870.00
2022-10-06T10:34:24.995Z,3988.12
2022-10-06T10:35:18.926Z,4325.62
2022-10-06T10:36:16.768Z,4494.38
2022-10-06T10:37:16.769Z,4201.88
2022-10-06T10:38:16.739Z,4134.38
2022-10-06T10:39:16.722Z,4066.88
2022-10-06T10:40:16.720Z,4083.75
2022-10-06T10:41:16.687Z,4258.12
2022-10-06T10:42:16.702Z,4280.62
2022-10-06T10:43:16.842Z,4235.62
2022-10-06T10:44:16.648Z,4387.50
2022-10-06T10:45:16.644Z,3780.00
2022-10-06T10:46:16.681Z,871.88
2022-10-06T10:47:16.733Z,4320.00
2022-10-06T10:48:16.586Z,4252.50
2022-10-06T10:49:17.612Z,3813.75
2022-10-06T10:50:16.562Z,3976.88
2022-10-06T10:51:16.547Z,3639.38
2022-10-06T10:52:16.556Z,2300.62
2022-10-06T10:54:16.509Z,4263.75
2022-10-06T10:55:16.476Z,4646.25
2022-10-06T10:56:16.443Z,4921.88
2022-10-06T10:57:16.459Z,4933.12
2022-10-06T10:58:17.440Z,4713.75
2022-10-06T10:59:16.404Z,4505.62
2022-10-06T11:00:16.373Z,4623.75
2022-10-06T11:01:16.418Z,4145.62
2022-10-06T11:02:16.460Z,928.12
2022-10-06T11:03:16.340Z,652.50
2022-10-06T11:04:16.326Z,1192.50
2022-10-06T11:05:16.292Z,939.38
2022-10-06T11:06:16.265Z,978.75
2022-10-06T11:07:16.790Z,894.38
2022-10-06T11:08:16.300Z,900.00
2022-10-06T11:09:16.273Z,826.88
2022-10-06T11:10:16.230Z,793.12
2022-10-06T11:11:16.196Z,781.88
2022-10-06T11:12:16.188Z,765.00
2022-10-06T11:13:16.530Z,753.75
2022-10-06T11:14:16.149Z,742.50
2022-10-06T11:15:16.226Z,748.12
2022-10-06T11:16:16.158Z,748.12
2022-10-06T11:17:16.112Z,742.50
2022-10-06T11:18:19.464Z,736.88
2022-10-06T11:19:18.066Z,725.62
2022-10-06T11:20:16.053Z,720.00
2022-10-06T11:21:16.062Z,708.75
2022-10-06T11:22:16.045Z,697.50
2022-10-06T11:23:16.051Z,691.88
2022-10-06T11:24:15.982Z,691.88
2022-10-06T11:25:15.973Z,675.00
2022-10-06T11:26:15.974Z,663.75
2022-10-06T11:27:15.969Z,658.12
2022-10-06T11:28:16.004Z,658.12
2022-10-06T11:29:15.907Z,658.12
2022-10-06T11:30:15.941Z,635.62
2022-10-06T11:31:21.822Z,618.75
2022-10-06T11:32:17.903Z,613.12
2022-10-06T11:33:15.865Z,596.25
2022-10-06T11:34:15.827Z,579.38
2022-10-06T11:35:15.826Z,562.50
2022-10-06T11:36:15.799Z,551.25
2022-10-06T11:37:15.812Z,534.38
2022-10-06T11:38:15.804Z,534.38
2022-10-06T11:39:15.752Z,523.12
2022-10-06T11:40:15.743Z,511.88
2022-10-06T11:41:15.783Z,500.62
2022-10-06T11:42:15.734Z,495.00
2022-10-06T11:43:15.695Z,483.75
2022-10-06T11:44:15.689Z,478.12
2022-10-06T11:45:16.661Z,472.50
2022-10-06T11:46:15.713Z,466.88
2022-10-06T11:47:15.667Z,466.88
2022-10-06T11:48:15.602Z,461.25
2022-10-06T11:49:15.591Z,450.00
2022-10-06T11:50:15.568Z,444.38
2022-10-06T11:51:15.581Z,438.75
2022-10-06T11:52:15.585Z,438.75
2022-10-06T11:53:15.586Z,433.12
2022-10-06T11:54:15.513Z,433.12
2022-10-06T11:55:15.503Z,427.50
2022-10-06T11:56:15.478Z,421.88
2022-10-06T11:57:15.491Z,416.25
2022-10-06T11:58:42.010Z,416.25
2022-10-06T11:59:17.425Z,416.25
2022-10-06T12:00:15.408Z,410.62
2022-10-06T12:01:15.398Z,410.62
2022-10-06T12:02:15.557Z,405.00
2022-10-06T12:03:15.399Z,405.00
2022-10-06T12:04:15.351Z,399.38
2022-10-06T12:05:52.335Z,399.38
2022-10-06T12:06:17.328Z,393.75
2022-10-06T12:07:15.340Z,393.75
2022-10-06T12:08:15.292Z,388.12
2022-10-06T12:09:15.267Z,388.12
2022-10-06T12:10:15.243Z,382.50
2022-10-06T12:11:15.253Z,388.12
2022-10-06T12:12:15.260Z,376.88
2022-10-06T12:13:51.018Z,371.25
2022-10-06T12:17:05.986Z,371.25
2022-10-06T12:17:06.116Z,376.88
2022-10-06T12:17:19.656Z,371.25
2022-10-06T12:18:16.130Z,365.62
2022-10-06T12:19:15.106Z,360.00
2022-10-06T12:20:15.074Z,360.00
2022-10-06T12:21:15.071Z,354.38
2022-10-06T12:22:15.080Z,354.38
2022-10-06T12:23:15.030Z,354.38
2022-10-06T12:24:15.037Z,348.75
2022-10-06T12:25:15.004Z,348.75
2022-10-06T12:26:14.998Z,348.75
2022-10-06T12:27:15.057Z,348.75
2022-10-06T12:28:15.020Z,348.75
2022-10-06T12:29:14.928Z,343.12
2022-10-06T12:30:15.599Z,343.12
2022-10-06T12:31:18.261Z,343.12
2022-10-06T12:32:15.919Z,337.50
2022-10-06T12:33:14.851Z,331.88
2022-10-06T12:34:14.849Z,331.88
2022-10-06T12:35:14.824Z,326.25
2022-10-06T12:36:14.819Z,326.25
2022-10-06T12:37:14.825Z,326.25
2022-10-06T12:38:14.775Z,320.62
2022-10-06T12:39:14.743Z,320.62
2022-10-06T12:40:14.757Z,320.62
2022-10-06T12:41:14.740Z,320.62
2022-10-06T12:42:14.744Z,315.00
2022-10-06T12:43:14.712Z,315.00